Time;durP1;ratioP1;P1;durP2;ratioP2;P2;SDS_P1;SDS_P2;PMS_P1;PMS_P2;Temp;Humidity;BMP_temperature;BMP_pressure;BME280_temperature;BME280_humidity;BME280_pressure;Samples;Min_cycle;Max_cycle;Signal;HPM_P1;HPM_P2
2022/11/24 00:01:02;;;;;;;;;5.75;3.50;;;;;10.72;68.41;100364.59;6163599;23;45702;-87
2022/11/24 00:03:28;;;;;;;;;5.50;3.50;;;;;10.71;68.80;100365.47;6163641;23;47796;-87
2022/11/24 00:05:53;;;;;;;;;5.75;4.25;;;;;10.84;68.67;100387.28;6193493;23;45445;-90
2022/11/24 00:08:19;;;;;;;;;5.25;3.50;;;;;10.86;68.41;100403.94;6169203;23;45281;-90
2022/11/24 00:10:44;;;;;;;;;6.00;5.00;;;;;10.71;68.70;100378.63;6203282;23;45383;-89
2022/11/24 00:13:13;;;;;;;;;4.00;3.00;;;;;10.89;68.66;100405.69;6204339;23;45518;-89
2022/11/24 00:15:39;;;;;;;;;6.75;4.25;;;;;10.80;68.48;100382.97;6172062;23;45789;-90
2022/11/24 00:18:04;;;;;;;;;4.75;4.00;;;;;10.87;68.42;100389.00;6168457;23;45318;-89
2022/11/24 00:20:30;;;;;;;;;6.00;3.00;;;;;10.95;68.54;100390.66;6169926;23;45379;-89
2022/11/24 00:22:55;;;;;;;;;4.00;3.00;;;;;10.87;68.58;100362.69;6168533;23;46952;-90
2022/11/24 00:25:21;;;;;;;;;7.00;3.00;;;;;10.88;68.68;100357.41;6195268;23;45615;-89
2022/11/24 00:27:46;;;;;;;;;6.00;3.00;;;;;10.92;68.51;100356.47;6167369;23;45314;-90
2022/11/24 00:30:12;;;;;;;;;6.00;3.50;;;;;11.04;68.41;100366.88;6166390;23;45496;-90
2022/11/24 00:32:37;;;;;;;;;4.00;3.33;;;;;10.95;68.44;100329.22;6165061;23;47372;-89
2022/11/24 00:35:03;;;;;;;;;4.33;3.67;;;;;10.97;68.35;100330.94;6192349;23;45339;-91
2022/11/24 00:37:29;;;;;;;;;4.75;3.00;;;;;11.13;67.94;100352.72;6191520;23;45446;-92
2022/11/24 00:39:55;;;;;;;;;5.00;3.00;;;;;11.01;68.11;100315.97;6194364;23;45338;-89
2022/11/24 00:42:20;;;;;;;;;5.25;4.25;;;;;11.11;68.07;100345.72;6167771;23;46780;-91
2022/11/24 00:44:45;;;;;;;;;6.25;5.75;;;;;11.13;67.75;100362.38;6191744;23;45220;-90
2022/11/24 00:47:11;;;;;;;;;5.75;4.75;;;;;11.11;67.75;100338.69;6197214;23;45286;-90
2022/11/24 00:49:36;;;;;;;;;5.00;4.00;;;;;11.15;67.59;100324.59;6175049;23;45215;-91
2022/11/24 00:52:02;;;;;;;;;4.00;2.00;;;;;11.16;67.56;100336.88;6201265;23;47449;-89
2022/11/24 00:54:28;;;;;;;;;4.25;2.00;;;;;11.20;67.48;100349.13;6175643;23;45162;-90
2022/11/24 00:56:53;;;;;;;;;3.50;2.75;;;;;11.27;67.30;100378.88;6176913;23;45195;-89
2022/11/24 00:59:18;;;;;;;;;2.00;2.00;;;;;11.23;66.88;100356.97;6177315;23;45336;-90
2022/11/24 01:01:44;;;;;;;;;4.00;2.75;;;;;11.20;66.88;100374.56;6176406;23;46507;-89
2022/11/24 01:04:09;;;;;;;;;2.75;1.25;;;;;11.16;66.80;100370.25;6197576;23;45296;-89
2022/11/24 01:06:35;;;;;;;;;2.00;1.00;;;;;11.18;66.59;100379.88;6175723;23;45184;-90
2022/11/24 01:09:01;;;;;;;;;4.00;3.75;;;;;11.12;66.60;100369.44;6200944;23;45189;-89
2022/11/24 01:14:21;;;;;;;;;2.00;1.00;;;;;11.06;65.92;100387.91;6197705;23;44613;-90
2022/11/24 01:16:47;;;;;;;;;1.25;1.00;;;;;10.95;65.63;100379.28;6168224;23;45325;-89
2022/11/24 01:19:12;;;;;;;;;0.33;0.33;;;;;10.98;65.49;100390.63;6169391;23;45173;-89
2022/11/24 01:21:38;;;;;;;;;0.00;0.00;;;;;11.03;65.27;100409.03;6167360;23;45958;-89
2022/11/24 01:24:04;;;;;;;;;5.67;2.00;;;;;10.94;65.20;100402.09;6193526;23;45276;-89
2022/11/24 01:26:30;;;;;;;;;3.25;1.00;;;;;10.95;65.24;100424.91;6194500;23;45218;-89
2022/11/24 01:28:57;;;;;;;;;2.00;1.00;;;;;10.83;64.82;100406.63;6167642;23;45389;-88
2022/11/24 01:31:23;;;;;;;;;1.00;1.00;;;;;10.97;65.04;100438.06;6168524;23;46895;-89
2022/11/24 01:33:49;;;;;;;;;2.00;0.33;;;;;10.91;64.83;100422.34;6167537;23;45165;-90
2022/11/24 01:36:15;;;;;;;;;2.00;1.67;;;;;10.91;64.93;100433.75;6165621;23;45143;-90
2022/11/24 01:38:40;;;;;;;;;2.00;2.00;;;;;10.84;65.06;100434.69;6195438;23;44763;-90
2022/11/24 01:41:07;;;;;;;;;1.00;1.00;;;;;10.82;64.97;100434.72;6168195;23;46892;-88
2022/11/24 01:43:33;;;;;;;;;2.00;1.00;;;;;10.82;64.86;100449.63;6168813;23;45298;-88
2022/11/24 01:46:09;;;;;;;;;1.00;1.00;;;;;10.79;65.02;100460.19;6162986;23;45156;-88
2022/11/24 01:48:42;;;;;;;;;1.00;0.33;;;;;10.76;65.01;100450.56;6162859;23;45377;-91
2022/11/24 01:51:16;;;;;;;;;0.50;0.25;;;;;10.67;64.77;100442.75;6162389;23;48414;-90
2022/11/24 01:53:47;;;;;;;;;2.00;1.00;;;;;10.72;64.65;100455.84;6163931;23;45263;-89
2022/11/24 01:56:14;;;;;;;;;0.00;0.00;;;;;10.56;64.72;100450.75;6162604;23;45321;-91
2022/11/24 01:58:43;;;;;;;;;1.00;0.00;;;;;10.59;64.54;100479.66;6163089;23;45532;-88
2022/11/24 02:01:08;;;;;;;;;2.00;0.00;;;;;10.61;64.80;100492.81;6186366;23;46801;-89
2022/11/24 02:03:38;;;;;;;;;1.00;0.00;;;;;10.55;64.88;100485.81;6189286;23;45355;-90
2022/11/24 02:06:10;;;;;;;;;0.00;0.00;;;;;10.55;64.85;100492.84;6187388;23;45262;-90
2022/11/24 02:08:43;;;;;;;;;0.00;0.00;;;;;10.53;64.92;100492.00;6163242;23;45348;-89
2022/11/24 02:11:09;;;;;;;;;1.00;1.00;;;;;10.43;65.03;100501.72;6188569;23;48479;-90
2022/11/24 02:13:38;;;;;;;;;2.33;0.00;;;;;10.44;65.09;100514.00;6164123;23;45605;-90
2022/11/24 02:16:06;;;;;;;;;0.00;0.00;;;;;10.45;65.15;100528.03;6163876;23;45187;-89
2022/11/24 02:18:32;;;;;;;;;0.67;0.67;;;;;10.44;65.18;100524.53;6163951;23;45491;-89
2022/11/24 02:20:59;;;;;;;;;1.00;0.00;;;;;10.37;65.14;100521.06;6189073;23;47674;-90
2022/11/24 02:23:38;;;;;;;;;0.00;0.00;;;;;10.40;65.35;100525.44;6162891;23;45288;-89
2022/11/24 02:26:30;;;;;;;;;0.00;0.00;;;;;10.23;65.68;100504.44;6164238;23;44624;-90
2022/11/24 02:28:56;;;;;;;;;2.00;0.00;;;;;10.28;66.00;100523.75;6163438;23;45452;-90
2022/11/24 02:31:21;;;;;;;;;0.00;0.00;;;;;10.28;66.15;100530.78;6188406;23;46984;-88
2022/11/24 02:33:49;;;;;;;;;2.00;0.00;;;;;10.18;66.32;100514.13;6162725;23;45289;-89
2022/11/24 02:36:15;;;;;;;;;1.00;1.00;;;;;10.21;66.56;100539.53;6163229;23;45400;-90
2022/11/24 02:38:40;;;;;;;;;1.00;1.00;;;;;10.18;66.79;100532.53;6188589;23;45201;-89
2022/11/24 02:41:10;;;;;;;;;0.25;0.25;;;;;10.24;66.90;100550.94;6164554;23;46889;-88
2022/11/24 02:43:43;;;;;;;;;0.50;0.50;;;;;10.17;67.36;100546.59;6164490;23;45924;-89
2022/11/24 02:46:11;;;;;;;;;0.75;0.50;;;;;10.06;67.65;100543.13;6190861;23;45273;-90
2022/11/24 02:48:40;;;;;;;;;0.00;0.00;;;;;10.21;67.85;100577.28;6166278;23;45308;-88
2022/11/24 02:51:23;;;;;;;;;0.00;0.00;;;;;10.11;67.99;100562.41;6166999;23;47206;-90
2022/11/24 02:53:48;;;;;;;;;0.25;0.00;;;;;10.06;68.23;100559.78;6190410;22;45122;-89
2022/11/24 02:56:14;;;;;;;;;2.75;0.00;;;;;10.07;68.45;100564.16;6164515;23;45179;-90
2022/11/24 02:58:39;;;;;;;;;1.00;1.00;;;;;10.05;68.49;100575.56;6165153;23;45259;-90
2022/11/24 03:01:05;;;;;;;;;0.67;0.00;;;;;10.12;69.00;100590.44;6188559;23;46742;-91
2022/11/24 03:03:30;;;;;;;;;2.33;1.00;;;;;10.05;68.82;100588.72;6164337;23;45197;-89
2022/11/24 03:05:56;;;;;;;;;1.75;0.25;;;;;10.08;69.05;100610.63;6164406;23;45404;-88
2022/11/24 03:08:21;;;;;;;;;0.00;0.00;;;;;10.02;69.46;100607.13;6164496;23;45277;-89
2022/11/24 03:10:47;;;;;;;;;3.00;0.00;;;;;9.91;69.40;100597.53;6163884;23;46962;-88
2022/11/24 03:13:13;;;;;;;;;2.67;1.33;;;;;10.00;69.72;100625.56;6190556;23;45210;-89
2022/11/24 03:15:38;;;;;;;;;2.00;1.00;;;;;10.00;69.81;100624.69;6189325;23;45264;-89
2022/11/24 03:18:04;;;;;;;;;1.75;1.00;;;;;9.97;69.79;100636.09;6164090;23;45877;-90
2022/11/24 03:20:29;;;;;;;;;1.33;1.33;;;;;9.98;69.89;100642.22;6163825;23;46935;-90
2022/11/24 03:23:10;;;;;;;;;1.75;1.00;;;;;9.97;70.14;100640.47;6164824;23;45390;-90
2022/11/24 03:25:35;;;;;;;;;2.50;1.00;;;;;9.98;69.98;100645.72;6191486;23;45169;-89
2022/11/24 03:28:01;;;;;;;;;4.00;2.00;;;;;9.97;70.25;100649.25;6164044;23;45287;-90
2022/11/24 03:30:26;;;;;;;;;1.00;1.00;;;;;9.97;70.15;100653.63;6164798;23;47064;-90
2022/11/24 03:32:54;;;;;;;;;1.00;1.00;;;;;9.96;70.33;100651.88;6164743;23;45364;-89
2022/11/24 03:35:21;;;;;;;;;1.75;1.75;;;;;9.88;70.46;100638.75;6189772;23;45325;-89
2022/11/24 03:37:46;;;;;;;;;2.00;2.00;;;;;9.83;70.38;100633.50;6163697;23;45664;-90
2022/11/24 03:40:12;;;;;;;;;2.00;0.75;;;;;9.79;70.56;100629.13;6164014;23;46443;-90
2022/11/24 03:42:39;;;;;;;;;0.00;0.00;;;;;9.87;70.61;100648.38;6189112;23;45198;-89
2022/11/24 03:45:05;;;;;;;;;2.00;2.00;;;;;9.81;70.48;100630.00;6189413;23;45223;-90
2022/11/24 03:47:30;;;;;;;;;1.00;1.00;;;;;9.74;70.41;100625.63;6164450;23;45175;-90
2022/11/24 03:49:56;;;;;;;;;1.33;1.00;;;;;9.75;70.27;100627.38;6190299;23;48057;-89
2022/11/24 03:52:21;;;;;;;;;0.00;0.00;;;;;9.80;70.30;100644.00;6199648;23;45225;-89
2022/11/24 03:54:47;;;;;;;;;1.00;1.00;;;;;9.83;70.45;100667.66;6199398;23;45086;-90
2022/11/24 03:57:12;;;;;;;;;1.25;1.00;;;;;9.82;70.45;100654.53;6171788;23;45588;-90
2022/11/24 03:59:38;;;;;;;;;1.75;1.00;;;;;9.80;70.52;100653.66;6188910;23;47002;-90
2022/11/24 04:02:03;;;;;;;;;0.75;0.50;;;;;9.86;70.46;100666.78;6164078;23;45376;-91
2022/11/24 04:04:29;;;;;;;;;1.75;0.75;;;;;9.73;70.55;100658.06;6189033;23;45312;-91
2022/11/24 04:06:54;;;;;;;;;2.00;0.00;;;;;9.80;70.72;100669.44;6163774;23;45235;-90
2022/11/24 04:09:19;;;;;;;;;1.50;1.00;;;;;9.71;70.52;100667.72;6163245;23;46574;-90
2022/11/24 04:14:29;;;;;;;;;0.50;0.50;;;;;9.82;70.65;100697.47;6191660;23;45154;-90
2022/11/24 04:16:54;;;;;;;;;0.75;0.75;;;;;9.70;70.65;100666.84;6189025;23;45454;-90
2022/11/24 04:19:19;;;;;;;;;1.50;1.50;;;;;9.70;70.69;100676.44;6163079;23;47153;-89
2022/11/24 04:21:45;;;;;;;;;2.00;2.00;;;;;9.65;70.84;100670.31;6162977;23;45712;-91
2022/11/24 04:24:10;;;;;;;;;2.00;1.75;;;;;9.78;70.67;100693.09;6188506;23;45429;-90
2022/11/24 04:26:36;;;;;;;;;1.50;1.00;;;;;9.75;71.00;100692.22;6190473;23;45150;-89
2022/11/24 04:29:01;;;;;;;;;1.75;1.00;;;;;9.75;70.60;100697.47;6164767;23;46969;-90
2022/11/24 04:31:27;;;;;;;;;1.75;1.75;;;;;9.73;70.87;100700.13;6165539;23;45276;-89
2022/11/24 04:33:52;;;;;;;;;1.00;1.00;;;;;9.71;71.13;100702.75;6189098;23;45210;-89
2022/11/24 04:36:17;;;;;;;;;2.75;2.00;;;;;9.62;71.06;100683.47;6188436;23;45514;-90
2022/11/24 04:38:43;;;;;;;;;3.00;1.00;;;;;9.69;71.25;100703.63;6188509;23;47426;-89
2022/11/24 04:41:08;;;;;;;;;2.50;1.50;;;;;9.66;71.19;100712.38;6190985;23;45150;-90
2022/11/24 04:43:37;;;;;;;;;3.50;3.50;;;;;9.58;71.35;100700.13;6163263;23;45130;-89
2022/11/24 04:46:02;;;;;;;;;2.75;0.25;;;;;9.49;71.28;100699.25;6163223;23;45377;-90
2022/11/24 04:48:28;;;;;;;;;3.00;2.25;;;;;9.60;71.38;100707.16;6163121;23;48008;-90
2022/11/24 04:50:53;;;;;;;;;3.00;1.00;;;;;9.62;71.59;100721.16;6188976;23;45384;-89
2022/11/24 04:53:19;;;;;;;;;3.50;1.75;;;;;9.55;71.63;100716.78;6163643;23;45398;-89
2022/11/24 04:55:45;;;;;;;;;1.75;1.25;;;;;9.61;71.46;100726.41;6163014;23;45679;-89
2022/11/24 04:58:10;;;;;;;;;3.00;1.50;;;;;9.55;71.66;100722.03;6163765;23;47100;-89
2022/11/24 05:00:36;;;;;;;;;1.00;1.00;;;;;9.53;71.65;100718.53;6165297;23;45298;-90
2022/11/24 05:03:02;;;;;;;;;2.25;1.00;;;;;9.58;71.63;100729.03;6163693;23;45243;-87
2022/11/24 05:05:28;;;;;;;;;1.00;0.00;;;;;9.51;71.57;100728.16;6189699;23;45526;-87
2022/11/24 05:07:53;;;;;;;;;3.00;1.00;;;;;9.46;71.49;100717.66;6162886;23;46189;-90
2022/11/24 05:10:36;;;;;;;;;1.75;1.00;;;;;9.44;71.36;100710.66;6188215;23;45657;-88
2022/11/24 05:13:05;;;;;;;;;2.00;1.25;;;;;9.58;71.21;100726.41;6162819;23;45141;-86
2022/11/24 05:15:31;;;;;;;;;3.75;2.25;;;;;9.47;71.40;100715.91;6161295;23;45889;-84
2022/11/24 05:17:56;;;;;;;;;2.00;1.00;;;;;9.56;71.44;100718.53;6188929;23;45328;-85
2022/11/24 05:20:23;;;;;;;;;4.00;4.00;;;;;9.49;71.26;100716.78;6162143;23;45812;-86
2022/11/24 05:22:48;;;;;;;;;2.00;1.00;;;;;9.60;71.25;100736.06;6163881;23;45330;-88
2022/11/24 05:25:14;;;;;;;;;1.00;1.00;;;;;9.54;71.50;100738.66;6164727;23;45660;-91
2022/11/24 05:27:40;;;;;;;;;4.75;2.50;;;;;9.59;71.54;100742.16;6165811;23;47120;-90
2022/11/24 05:30:06;;;;;;;;;3.75;1.00;;;;;9.53;71.38;100731.66;6189451;23;45371;-88
2022/11/24 05:32:31;;;;;;;;;3.75;2.75;;;;;9.43;71.42;100722.88;6189281;23;45169;-90
2022/11/24 05:34:59;;;;;;;;;1.25;1.00;;;;;9.50;71.38;100740.41;6190360;23;45197;-89
2022/11/24 05:37:27;;;;;;;;;5.25;2.50;;;;;9.51;71.56;100736.03;6187586;23;47063;-89
2022/11/24 05:39:53;;;;;;;;;2.00;2.00;;;;;9.61;71.71;100750.06;6189872;23;44762;-92
2022/11/24 05:45:03;;;;;;;;;12.25;11.50;;;;;9.61;71.50;100755.31;6192085;23;44693;-90
2022/11/24 05:47:29;;;;;;;;;3.00;2.00;;;;;9.60;71.58;100757.09;6163333;23;47288;-89
2022/11/24 05:49:54;;;;;;;;;3.00;2.00;;;;;9.60;71.68;100759.72;6188757;23;45361;-90
2022/11/24 05:52:20;;;;;;;;;3.25;2.25;;;;;9.60;71.61;100764.09;6164422;23;45238;-91
2022/11/24 05:54:45;;;;;;;;;3.25;2.00;;;;;9.52;71.65;100758.84;6190203;23;45496;-91
2022/11/24 05:57:12;;;;;;;;;1.75;1.00;;;;;9.59;71.85;100771.06;6164347;23;46638;-87
2022/11/24 05:59:37;;;;;;;;;3.00;1.00;;;;;9.59;71.55;100784.22;6163148;23;45829;-90
2022/11/24 06:02:03;;;;;;;;;1.50;1.50;;;;;9.46;71.56;100761.44;6161988;23;44683;-86
2022/11/24 06:04:28;;;;;;;;;4.00;3.00;;;;;9.50;71.57;100773.72;6185999;23;45448;-86
2022/11/24 06:06:53;;;;;;;;;1.75;1.00;;;;;9.54;71.73;100787.72;6160828;23;47047;-85
2022/11/24 06:09:19;;;;;;;;;0.50;0.50;;;;;9.57;71.85;100787.72;6186052;23;45889;-87
2022/11/24 06:11:46;;;;;;;;;2.75;0.00;;;;;9.57;72.09;100791.25;6161386;23;45228;-87
2022/11/24 06:14:11;;;;;;;;;3.50;2.50;;;;;9.52;72.06;100792.13;6161846;23;45490;-87
2022/11/24 06:16:37;;;;;;;;;3.25;2.75;;;;;9.48;72.40;100791.22;6186122;23;47195;-87
2022/11/24 06:19:02;;;;;;;;;3.25;1.00;;;;;9.45;72.26;100785.97;6187672;23;45375;-87
2022/11/24 06:21:28;;;;;;;;;3.00;1.00;;;;;9.37;72.16;100787.72;6188416;23;45313;-88
2022/11/24 06:23:53;;;;;;;;;8.50;3.00;;;;;9.44;71.99;100802.63;6161080;23;45293;-86
2022/11/24 06:26:19;;;;;;;;;1.00;0.00;;;;;9.38;72.36;100799.97;6185979;23;47024;-88
2022/11/24 06:28:44;;;;;;;;;4.00;2.00;;;;;9.45;72.32;100815.75;6186672;23;45292;-87
2022/11/24 06:31:10;;;;;;;;;2.00;0.67;;;;;9.45;71.97;100814.88;6161405;23;45202;-87
2022/11/24 06:33:37;;;;;;;;;2.25;2.25;;;;;9.46;72.43;100827.13;6160848;23;45552;-87
2022/11/24 06:36:05;;;;;;;;;2.75;2.75;;;;;9.33;72.37;100801.69;6160498;23;46856;-88
2022/11/24 06:38:31;;;;;;;;;1.25;1.00;;;;;9.39;72.54;100828.88;6186761;23;45330;-85
2022/11/24 06:41:02;;;;;;;;;2.50;1.00;;;;;9.28;72.28;100814.84;6160191;23;45401;-87
2022/11/24 06:43:28;;;;;;;;;2.75;1.00;;;;;9.36;73.26;100834.13;6159693;23;45628;-87
2022/11/24 06:45:54;;;;;;;;;2.75;2.75;;;;;9.26;72.92;100822.72;6160172;23;47610;-86
2022/11/24 06:48:20;;;;;;;;;2.75;1.50;;;;;9.25;72.63;100825.34;6185862;23;45208;-86
2022/11/24 06:50:46;;;;;;;;;4.50;2.75;;;;;9.33;72.69;100842.00;6160485;23;45200;-87
2022/11/24 06:53:11;;;;;;;;;2.00;1.75;;;;;9.31;72.67;100849.00;6161314;23;45384;-87
2022/11/24 06:55:37;;;;;;;;;4.25;1.25;;;;;9.12;72.77;100819.16;6160662;23;46886;-87
2022/11/24 06:58:03;;;;;;;;;0.00;0.00;;;;;9.24;72.91;100841.97;6161515;23;45516;-87
2022/11/24 07:00:30;;;;;;;;;1.33;1.33;;;;;9.24;72.83;100849.84;6186001;23;45310;-88
2022/11/24 07:02:57;;;;;;;;;4.67;1.00;;;;;9.17;73.15;100846.34;6161587;23;45458;-88
2022/11/24 07:05:23;;;;;;;;;5.75;2.50;;;;;9.24;73.40;100862.97;6187537;23;45764;-87
2022/11/24 07:07:48;;;;;;;;;4.00;2.25;;;;;9.12;73.47;100858.56;6187887;23;45241;-87
2022/11/24 07:10:13;;;;;;;;;7.25;5.75;;;;;9.21;73.25;100884.84;6160214;23;45199;-87
2022/11/24 07:12:39;;;;;;;;;3.00;2.00;;;;;9.04;73.88;100852.41;6185608;23;45784;-87
2022/11/24 07:15:05;;;;;;;;;1.75;1.75;;;;;9.19;73.47;100877.84;6160951;23;47272;-87
2022/11/24 07:17:34;;;;;;;;;2.25;2.25;;;;;9.18;73.58;100879.59;6185796;23;45308;-86
2022/11/24 07:20:00;;;;;;;;;3.00;3.00;;;;;9.15;73.90;100871.72;6187793;23;45560;-86
2022/11/24 07:22:25;;;;;;;;;3.00;2.00;;;;;9.05;73.99;100867.28;6185534;23;45396;-87
2022/11/24 07:24:50;;;;;;;;;1.50;1.50;;;;;9.15;73.85;100890.09;6160588;23;45954;-87
2022/11/24 07:27:16;;;;;;;;;2.00;1.00;;;;;9.16;73.59;100893.59;6187406;23;45303;-87
2022/11/24 07:29:41;;;;;;;;;2.00;1.00;;;;;9.12;74.24;100883.97;6161921;23;45308;-87
2022/11/24 07:32:06;;;;;;;;;1.75;1.00;;;;;9.20;73.84;100884.88;6188896;23;45146;-87
2022/11/24 07:34:39;;;;;;;;;5.00;1.00;;;;;9.24;74.16;100887.50;6189113;23;45370;-87
2022/11/24 07:37:05;;;;;;;;;2.50;1.25;;;;;9.22;74.20;100894.50;6161670;23;45289;-87
2022/11/24 07:39:30;;;;;;;;;3.00;3.00;;;;;9.21;74.31;100891.88;6162700;23;45410;-87
2022/11/24 07:41:58;;;;;;;;;8.75;3.50;;;;;9.30;74.28;100899.75;6162714;23;45377;-87
2022/11/24 07:44:23;;;;;;;;;1.25;1.00;;;;;9.30;74.04;100906.78;6161940;23;46634;-87
2022/11/24 07:46:50;;;;;;;;;3.25;2.00;;;;;9.27;73.93;100910.28;6187319;23;45378;-87
2022/11/24 07:49:16;;;;;;;;;3.00;2.00;;;;;9.32;74.22;100916.41;6186852;23;45294;-87
2022/11/24 07:51:41;;;;;;;;;3.50;3.00;;;;;9.22;74.14;100905.03;6188693;23;45467;-87
2022/11/24 07:54:07;;;;;;;;;3.75;2.25;;;;;9.23;74.10;100898.88;6186544;23;46956;-87
2022/11/24 07:56:32;;;;;;;;;5.50;2.00;;;;;9.32;73.99;100924.31;6185761;23;45376;-87
2022/11/24 07:58:58;;;;;;;;;5.00;3.00;;;;;9.33;73.85;100919.91;6162017;23;45419;-87
2022/11/24 08:01:23;;;;;;;;;6.25;3.00;;;;;9.42;73.95;100939.25;6160945;23;45257;-86
2022/11/24 08:03:49;;;;;;;;;5.00;3.75;;;;;9.37;74.17;100925.22;6161014;23;47620;-86
2022/11/24 08:06:15;;;;;;;;;4.50;3.50;;;;;9.40;74.25;100929.59;6188449;23;45263;-87
2022/11/24 08:08:40;;;;;;;;;3.50;3.50;;;;;9.44;74.20;100928.75;6189209;23;45335;-88
2022/11/24 08:11:08;;;;;;;;;3.25;1.75;;;;;9.48;74.22;100917.34;6186838;23;45604;-88
2022/11/24 08:13:34;;;;;;;;;3.00;1.75;;;;;9.55;73.97;100932.28;6187145;23;47228;-87
2022/11/24 08:16:05;;;;;;;;;5.25;4.25;;;;;9.57;74.21;100929.66;6160604;23;45781;-85
2022/11/24 08:18:30;;;;;;;;;7.00;4.75;;;;;9.59;73.89;100941.06;6160223;23;45349;-84
2022/11/24 08:20:59;;;;;;;;;5.75;5.00;;;;;9.69;73.97;100951.59;6160385;23;45263;-84
2022/11/24 08:23:25;;;;;;;;;4.25;4.25;;;;;9.64;74.10;100948.06;6187815;23;45995;-86
2022/11/24 08:25:50;;;;;;;;;4.25;4.25;;;;;9.76;74.44;100967.41;6161043;23;45219;-85
2022/11/24 08:28:15;;;;;;;;;3.75;3.00;;;;;9.78;73.79;100960.38;6161284;23;45275;-84
2022/11/24 08:30:41;;;;;;;;;3.00;1.00;;;;;9.77;74.15;100959.50;6162183;23;45343;-86
2022/11/24 08:33:06;;;;;;;;;5.75;4.25;;;;;9.83;73.80;100966.53;6160735;23;46768;-85
2022/11/24 08:35:36;;;;;;;;;7.00;5.50;;;;;9.93;73.82;100978.84;6162137;23;45254;-83
2022/11/24 08:38:02;;;;;;;;;5.00;4.00;;;;;9.98;73.65;100986.75;6163599;23;45291;-84
2022/11/24 08:40:27;;;;;;;;;7.25;5.00;;;;;9.89;73.65;100964.81;6187898;23;45558;-87
2022/11/24 08:42:56;;;;;;;;;4.75;2.75;;;;;10.00;73.60;100988.53;6191890;23;48070;-86
2022/11/24 08:45:25;;;;;;;;;4.00;3.50;;;;;10.03;73.52;100985.03;6162381;23;45298;-87
2022/11/24 08:47:55;;;;;;;;;4.00;3.50;;;;;9.99;73.45;100970.09;6188310;23;45161;-87
2022/11/24 08:50:22;;;;;;;;;3.00;2.00;;;;;10.11;73.41;100986.78;6161232;23;45165;-87
2022/11/24 08:52:47;;;;;;;;;5.00;2.00;;;;;10.13;73.18;100995.56;6188598;23;46303;-87
2022/11/24 08:55:13;;;;;;;;;6.00;5.00;;;;;10.16;73.51;100987.66;6188878;23;45369;-86
2022/11/24 08:57:39;;;;;;;;;3.00;1.75;;;;;10.19;73.66;100989.44;6188866;23;45499;-86
2022/11/24 09:00:05;;;;;;;;;5.00;4.00;;;;;10.11;73.19;100965.75;6161577;23;45400;-87
2022/11/24 09:02:31;;;;;;;;;5.50;5.00;;;;;10.22;73.33;100984.19;6188494;23;45395;-87
2022/11/24 09:04:56;;;;;;;;;6.75;4.00;;;;;10.31;73.30;100993.84;6161373;23;45712;-87
2022/11/24 09:07:22;;;;;;;;;6.00;5.00;;;;;10.27;72.94;100978.94;6163522;23;45246;-86
2022/11/24 09:09:47;;;;;;;;;7.00;6.50;;;;;10.38;73.15;100990.38;6186513;23;45121;-87
2022/11/24 09:12:12;;;;;;;;;9.00;6.50;;;;;10.34;73.05;100985.97;6161306;23;48126;-87
2022/11/24 09:14:38;;;;;;;;;4.50;3.25;;;;;10.31;73.06;100973.69;6161236;23;45526;-87
2022/11/24 09:17:03;;;;;;;;;5.50;3.25;;;;;10.48;73.01;100993.91;6188789;23;45166;-87
2022/11/24 09:19:28;;;;;;;;;10.50;8.00;;;;;10.41;72.89;100979.84;6160902;23;45402;-87
2022/11/24 09:21:54;;;;;;;;;5.00;3.00;;;;;10.47;72.88;100986.84;6160141;23;47059;-87
2022/11/24 09:24:19;;;;;;;;;3.00;2.00;;;;;10.53;72.83;100984.22;6160481;23;44665;-85
2022/11/24 09:26:45;;;;;;;;;2.75;2.25;;;;;10.68;72.56;100996.53;6160175;23;45778;-86
2022/11/24 09:29:11;;;;;;;;;3.50;2.50;;;;;10.81;72.63;101001.78;6159889;23;45365;-87
2022/11/24 09:31:38;;;;;;;;;4.00;4.00;;;;;10.89;72.67;100993.88;6187674;23;46195;-86
2022/11/24 09:34:10;;;;;;;;;7.50;4.25;;;;;10.99;72.31;100981.59;6160065;23;45386;-86
2022/11/24 09:36:35;;;;;;;;;5.50;3.50;;;;;11.05;71.85;100973.66;6160249;23;45190;-87
2022/11/24 09:39:02;;;;;;;;;4.00;3.50;;;;;11.22;71.60;100987.66;6186876;23;45193;-88
2022/11/24 09:42:13;;;;;;;;;4.50;2.75;;;;;11.31;71.56;100994.69;6188457;23;46249;-88
2022/11/24 09:45:21;;;;;;;;;4.25;3.00;;;;;11.36;71.19;100966.56;6013338;23;45222;-88
2022/11/24 09:47:58;;;;;;;;;3.50;3.25;;;;;11.56;70.85;100976.16;6037409;23;45458;-89
2022/11/24 09:50:34;;;;;;;;;6.00;4.50;;;;;11.65;70.50;100982.25;6013323;23;45296;-88
2022/11/24 09:53:35;;;;;;;;;5.00;3.25;;;;;11.70;70.35;100982.22;6143018;23;48172;-88
2022/11/24 09:56:25;;;;;;;;;5.75;4.50;;;;;11.79;70.06;100978.69;6150489;23;45200;-90
2022/11/24 09:58:56;;;;;;;;;3.00;2.00;;;;;11.90;69.86;100990.09;6161382;23;45250;-84
2022/11/24 10:01:30;;;;;;;;;3.67;3.67;;;;;11.98;69.34;100996.19;6158049;23;45485;-90
2022/11/24 10:03:56;;;;;;;;;4.50;3.75;;;;;12.11;69.54;101004.94;6161780;23;47475;-90
2022/11/24 10:06:29;;;;;;;;;7.75;5.00;;;;;12.19;69.13;101011.03;6160497;23;44824;-90
2022/11/24 10:09:10;;;;;;;;;8.00;5.50;;;;;12.25;69.19;100995.16;6189347;23;45510;-89
2022/11/24 10:11:57;;;;;;;;;4.67;3.00;;;;;12.43;68.73;100995.91;6159442;23;45519;-92
2022/11/24 10:14:52;;;;;;;;;5.75;4.50;;;;;12.63;68.45;100995.75;6162461;23;47960;-89
2022/11/24 10:17:56;;;;;;;;;8.00;4.75;;;;;12.80;68.24;100993.84;6135534;23;45290;-92
2022/11/24 10:20:28;;;;;;;;;5.00;4.75;;;;;13.00;67.21;100980.44;6117560;23;45791;-92
2022/11/24 10:23:17;;;;;;;;;4.00;3.67;;;;;13.57;67.96;100972.78;6161530;23;46186;-90
2022/11/24 10:25:52;;;;;;;;;6.25;6.00;;;;;14.86;67.39;100981.50;6161416;23;47423;-90
2022/11/24 10:28:17;;;;;;;;;7.00;5.00;;;;;15.62;65.20;100952.59;6159171;23;45310;-91
2022/11/24 10:30:43;;;;;;;;;5.00;4.67;;;;;16.14;63.11;100960.34;6158412;23;45310;-87
2022/11/24 10:33:18;;;;;;;;;5.67;4.67;;;;;16.50;62.09;100950.63;6159624;23;45326;-90
2022/11/24 10:36:01;;;;;;;;;5.67;4.00;;;;;17.02;61.23;100961.72;6159433;23;48592;-87
2022/11/24 10:38:27;;;;;;;;;7.00;3.00;;;;;17.78;60.45;100961.34;6159642;23;45230;-89
2022/11/24 10:41:04;;;;;;;;;5.33;4.00;;;;;18.62;58.88;100949.81;6186483;23;45253;-87
2022/11/24 10:43:29;;;;;;;;;4.00;3.33;;;;;19.72;57.84;100940.53;6159610;23;45309;-87
2022/11/24 10:46:13;;;;;;;;;4.67;4.67;;;;;20.95;55.71;100950.72;6183216;23;46961;-87
2022/11/24 10:48:46;;;;;;;;;2.00;2.00;;;;;21.93;53.54;100954.31;6161613;23;45151;-88
2022/11/24 10:51:49;;;;;;;;;1.67;1.67;;;;;22.76;51.35;100945.75;6160179;23;45311;-87
2022/11/24 10:54:18;;;;;;;;;3.00;3.00;;;;;23.39;50.18;100930.84;6159371;23;45851;-87
2022/11/24 10:56:46;;;;;;;;;2.00;2.00;;;;;23.92;48.48;100945.88;6160258;23;45985;-89
2022/11/24 10:59:39;;;;;;;;;3.67;3.00;;;;;24.28;46.62;100934.84;6160222;23;45425;-88
2022/11/24 11:02:26;;;;;;;;;4.67;3.67;;;;;24.87;45.76;100937.66;6155803;23;45602;-88
2022/11/24 11:04:52;;;;;;;;;6.00;2.33;;;;;25.35;44.35;100932.94;6165164;23;45360;-90
2022/11/24 11:07:20;;;;;;;;;5.67;4.00;;;;;25.97;43.32;100924.53;6161338;23;47245;-88
2022/11/24 11:09:49;;;;;;;;;3.33;3.33;;;;;26.68;43.16;100925.22;6186099;23;45500;-90
2022/11/24 11:12:22;;;;;;;;;3.00;3.00;;;;;27.41;41.84;100916.56;6186941;23;45438;-86
2022/11/24 11:14:49;;;;;;;;;3.67;3.67;;;;;27.84;38.82;100916.16;6187033;23;45530;-85
2022/11/24 11:17:36;;;;;;;;;0.00;0.00;;;;;27.78;38.59;100903.94;6188214;23;45271;-89
2022/11/24 11:20:16;;;;;;;;;2.33;2.33;;;;;27.49;37.90;100900.63;6186469;23;45420;-87
2022/11/24 11:22:46;;;;;;;;;3.67;2.67;;;;;27.91;37.33;100909.34;6186454;23;45382;-87
2022/11/24 11:25:11;;;;;;;;;2.00;2.00;;;;;28.34;36.55;100898.84;6189388;23;45531;-83
2022/11/24 11:27:39;;;;;;;;;4.33;3.00;;;;;28.55;35.86;100893.66;6185959;23;46057;-86
2022/11/24 11:30:25;;;;;;;;;3.00;2.00;;;;;28.14;35.13;100894.06;6184266;23;46210;-87
2022/11/24 11:32:57;;;;;;;;;3.33;2.67;;;;;27.15;35.33;100894.03;6185330;23;45380;-85
2022/11/24 11:35:25;;;;;;;;;2.00;2.00;;;;;26.61;35.37;100881.59;6185239;23;45398;-85
2022/11/24 11:38:00;;;;;;;;;4.00;2.00;;;;;26.87;35.70;100877.06;6159517;23;47535;-87
2022/11/24 11:40:29;;;;;;;;;2.00;2.00;;;;;27.44;34.93;100867.66;6159173;23;45513;-86
2022/11/24 11:43:13;;;;;;;;;3.00;3.00;;;;;28.10;34.29;100857.41;6187102;23;45296;-85